Copenhagen, New York
Current Conditions -  °F | °C
As of 4:58 AM on Friday 19 Dec 2014 (Local Time) from KGTB Reporting Station
Freezing Drizzle Freezing Drizzle  
Wind Chill: 15°   Ceiling: 300
Heat Index: 22°   Visibility: 4mi
Dew Point: 20°   Wind: 6mph
Humidity: 92%   Direction: 350°N
Pressure: 30.02"   Gusts: NA
Location:  43.89°N, 75.67°W
Report Text: KGTB 190958Z AUTO 35005KT 4SM -FZDZ BR OVC003 M05/M06 A3002 RMK AO2 SLP176 P0000 T10541065
Loading
Personal Weather Stations






























Interactive Weather Map New forecast layout! Learn more

10-Day Weather Forecast

Advertisements
Track Severe Weather on mobile